Millville, Minnesota
Current Conditions -  °F | °C
As of 8:54 AM on Thursday 23 Oct 2014 (Local Time) from K9MN Reporting Station
Overcast Overcast  
Wind Chill: 46°   Ceiling: 700
Heat Index: 48°   Visibility: 10mi
Dew Point: 47°   Wind: 5mph
Humidity: 95%   Direction: 170°S
Pressure: 30.03"   Gusts: NA
Location:  44.24°N, 92.3°W
Report Text: K9MN 231354Z AUTO 17004KT 10SM BKN007 OVC012 09/08 A3003 RMK AO1 P0002 T00900082
Loading
Personal Weather Stations






























Interactive Weather Map
Tropical Storm Tracking
New forecast layout! Learn more

10-Day Weather Forecast

Advertisements
Track Severe Weather on mobile